Time;durP1;ratioP1;P1;durP2;ratioP2;P2;SDS_P1;SDS_P2;PMS_P1;PMS_P2;Temp;Humidity;BMP_temperature;BMP_pressure;BME280_temperature;BME280_humidity;BME280_pressure;Samples;Min_cycle;Max_cycle;Signal;HPM_P1;HPM_P2
2022/12/24 00:02:12;;;;;;;0.00;0.00;;;;;;;;;;4976170;28;20603;-82
2022/12/24 00:04:40;;;;;;;0.00;0.00;;;;;;;;;;4975992;28;20611;-82
2022/12/24 00:07:09;;;;;;;0.00;0.00;;;;;;;;;;4975855;28;20221;-82
2022/12/24 00:09:37;;;;;;;0.00;0.00;;;;;;;;;;4976253;28;20687;-81
2022/12/24 00:12:06;;;;;;;0.00;0.00;;;;;;;;;;4975717;28;20245;-81
2022/12/24 00:14:36;;;;;;;0.00;0.00;;;;;;;;;;4975770;28;20272;-81
2022/12/24 00:17:04;;;;;;;0.00;0.00;;;;;;;;;;4975397;28;20280;-81
2022/12/24 00:19:33;;;;;;;0.00;0.00;;;;;;;;;;4974536;28;20210;-81
2022/12/24 00:22:01;;;;;;;0.00;0.00;;;;;;;;;;4975758;28;20213;-81
2022/12/24 00:24:30;;;;;;;0.00;0.00;;;;;;;;;;4975741;28;20202;-81
2022/12/24 00:26:58;;;;;;;0.00;0.00;;;;;;;;;;4975722;28;20701;-81
2022/12/24 00:29:27;;;;;;;0.00;0.00;;;;;;;;;;4976170;28;20276;-81
2022/12/24 00:32:12;;;;;;;0.00;0.00;;;;;;;;;;4974974;28;20272;-81
2022/12/24 00:34:41;;;;;;;0.00;0.00;;;;;;;;;;4975350;28;20256;-81
2022/12/24 00:37:17;;;;;;;0.00;0.00;;;;;;;;;;4975330;28;20300;-81
2022/12/24 00:39:49;;;;;;;0.00;0.00;;;;;;;;;;4974532;28;20210;-81
2022/12/24 00:42:32;;;;;;;0.00;0.00;;;;;;;;;;5111097;27;20641;-81
2022/12/24 00:45:01;;;;;;;0.00;0.00;;;;;;;;;;5110778;28;20201;-82
2022/12/24 00:47:33;;;;;;;0.00;0.00;;;;;;;;;;5110813;27;20215;-82
2022/12/24 00:50:06;;;;;;;0.00;0.00;;;;;;;;;;5110880;28;20196;-82
2022/12/24 00:52:37;;;;;;;0.00;0.00;;;;;;;;;;5111301;28;20634;-82
2022/12/24 00:55:15;;;;;;;0.00;0.00;;;;;;;;;;5110770;28;20197;-82
2022/12/24 00:57:49;;;;;;;0.00;0.00;;;;;;;;;;5111293;28;20276;-82
2022/12/24 01:00:24;;;;;;;0.00;0.00;;;;;;;;;;5096607;28;20208;-82
2022/12/24 01:02:54;;;;;;;0.00;0.00;;;;;;;;;;5089632;28;20662;-81
2022/12/24 01:05:24;;;;;;;0.00;0.00;;;;;;;;;;5090293;28;20218;-82
2022/12/24 01:07:53;;;;;;;0.00;0.00;;;;;;;;;;5110424;28;20185;-81
2022/12/24 01:10:24;;;;;;;0.00;0.00;;;;;;;;;;5091864;28;20214;-82
2022/12/24 01:12:56;;;;;;;0.00;0.00;;;;;;;;;;5107353;28;20209;-82
2022/12/24 01:15:27;;;;;;;0.00;0.00;;;;;;;;;;5109366;28;20246;-82
2022/12/24 01:17:57;;;;;;;0.00;0.00;;;;;;;;;;5110228;28;20299;-82
2022/12/24 01:20:30;;;;;;;0.00;0.00;;;;;;;;;;5107072;28;20197;-81
2022/12/24 01:23:02;;;;;;;0.00;0.00;;;;;;;;;;5091842;28;20288;-81
2022/12/24 01:25:32;;;;;;;0.00;0.00;;;;;;;;;;5110465;28;20255;-81
2022/12/24 01:28:04;;;;;;;0.00;0.00;;;;;;;;;;5110126;28;20546;-81
2022/12/24 01:30:36;;;;;;;0.00;0.00;;;;;;;;;;5110616;28;20522;-81
2022/12/24 01:33:06;;;;;;;0.00;0.00;;;;;;;;;;5110396;28;20209;-81
2022/12/24 01:35:39;;;;;;;0.00;0.00;;;;;;;;;;5109868;28;20263;-81
2022/12/24 01:38:12;;;;;;;0.00;0.00;;;;;;;;;;5096034;28;20717;-80
2022/12/24 01:43:32;;;;;;;0.00;0.00;;;;;;;;;;5109645;28;20292;-79
2022/12/24 01:46:09;;;;;;;0.00;0.00;;;;;;;;;;5109728;28;20655;-79
2022/12/24 01:48:41;;;;;;;0.00;0.00;;;;;;;;;;5103172;28;20259;-81
2022/12/24 01:51:18;;;;;;;0.00;0.00;;;;;;;;;;5093709;28;20205;-79
2022/12/24 01:53:49;;;;;;;0.00;0.00;;;;;;;;;;5095779;28;20237;-79
2022/12/24 01:56:24;;;;;;;0.00;0.00;;;;;;;;;;5088827;28;20339;-79
2022/12/24 01:59:02;;;;;;;0.00;0.00;;;;;;;;;;5096138;28;20225;-80
2022/12/24 02:01:31;;;;;;;0.00;0.00;;;;;;;;;;5082841;28;20218;-79
2022/12/24 02:04:11;;;;;;;0.00;0.00;;;;;;;;;;5075017;28;20244;-80
2022/12/24 02:06:42;;;;;;;0.00;0.00;;;;;;;;;;5075099;28;20262;-80
2022/12/24 02:09:16;;;;;;;0.00;0.00;;;;;;;;;;5075227;28;20205;-80
2022/12/24 02:11:47;;;;;;;0.00;0.00;;;;;;;;;;5075585;28;20209;-80
2022/12/24 02:14:19;;;;;;;0.00;0.00;;;;;;;;;;5088779;28;20726;-80
2022/12/24 02:16:55;;;;;;;0.00;0.00;;;;;;;;;;5094501;28;20218;-80
2022/12/24 02:19:56;;;;;;;0.00;0.00;;;;;;;;;;5084936;28;20728;-80
2022/12/24 02:22:32;;;;;;;0.00;0.00;;;;;;;;;;5013715;28;20266;-80
2022/12/24 02:25:11;;;;;;;0.00;0.00;;;;;;;;;;5084735;28;20202;-79
2022/12/24 02:27:51;;;;;;;0.00;0.00;;;;;;;;;;5095350;28;20582;-80
2022/12/24 02:30:32;;;;;;;0.00;0.00;;;;;;;;;;5095034;28;20186;-80
2022/12/24 02:33:18;;;;;;;0.00;0.00;;;;;;;;;;5078071;28;20194;-80
2022/12/24 02:35:52;;;;;;;0.00;0.00;;;;;;;;;;5094117;28;20263;-81
2022/12/24 02:38:25;;;;;;;0.00;0.00;;;;;;;;;;5089480;28;20239;-80
2022/12/24 02:40:56;;;;;;;0.00;0.00;;;;;;;;;;5094315;28;20217;-80
2022/12/24 02:43:28;;;;;;;0.00;0.00;;;;;;;;;;5094013;28;20217;-80
2022/12/24 02:46:02;;;;;;;0.00;0.00;;;;;;;;;;5094213;28;20249;-80
2022/12/24 02:48:32;;;;;;;0.00;0.00;;;;;;;;;;5093198;28;20202;-80
2022/12/24 02:51:08;;;;;;;0.00;0.00;;;;;;;;;;5093486;28;20627;-80
2022/12/24 02:53:38;;;;;;;0.00;0.00;;;;;;;;;;5093733;28;20227;-80
2022/12/24 02:56:18;;;;;;;0.00;0.00;;;;;;;;;;5094318;28;20217;-80
2022/12/24 02:58:58;;;;;;;0.00;0.00;;;;;;;;;;5093750;28;20186;-79
2022/12/24 03:01:38;;;;;;;0.00;0.00;;;;;;;;;;5081125;28;20208;-80
2022/12/24 03:04:15;;;;;;;0.00;0.00;;;;;;;;;;5084012;28;20194;-80
2022/12/24 03:06:50;;;;;;;0.00;0.00;;;;;;;;;;5094385;28;20265;-80
2022/12/24 03:09:26;;;;;;;0.00;0.00;;;;;;;;;;5092667;28;20665;-80
2022/12/24 03:12:01;;;;;;;0.00;0.00;;;;;;;;;;5093044;28;20201;-80
2022/12/24 03:14:32;;;;;;;0.00;0.00;;;;;;;;;;5092741;28;20276;-80
2022/12/24 03:17:06;;;;;;;0.00;0.00;;;;;;;;;;5093496;28;20256;-80
2022/12/24 03:19:37;;;;;;;0.00;0.00;;;;;;;;;;5090556;28;20205;-80
2022/12/24 03:22:21;;;;;;;0.00;0.00;;;;;;;;;;5094273;28;20220;-80
2022/12/24 03:24:51;;;;;;;0.00;0.00;;;;;;;;;;5093822;28;20197;-80
2022/12/24 03:27:22;;;;;;;0.00;0.00;;;;;;;;;;5093017;28;20218;-80
2022/12/24 03:29:54;;;;;;;0.00;0.00;;;;;;;;;;5089869;28;20452;-79
2022/12/24 03:32:29;;;;;;;0.00;0.00;;;;;;;;;;5093934;28;20182;-79
2022/12/24 03:35:10;;;;;;;0.00;0.00;;;;;;;;;;5092113;28;20216;-79
2022/12/24 03:37:41;;;;;;;0.00;0.00;;;;;;;;;;5093670;28;20542;-79
2022/12/24 03:40:12;;;;;;;0.00;0.00;;;;;;;;;;5077446;28;20214;-79
2022/12/24 03:42:44;;;;;;;0.00;0.00;;;;;;;;;;5085920;28;20242;-79
2022/12/24 03:45:13;;;;;;;0.00;0.00;;;;;;;;;;5078025;28;20193;-79
2022/12/24 03:47:49;;;;;;;0.00;0.00;;;;;;;;;;5088749;28;20202;-80
2022/12/24 03:50:18;;;;;;;0.00;0.00;;;;;;;;;;5084605;28;20550;-79
2022/12/24 03:52:51;;;;;;;0.00;0.00;;;;;;;;;;5090950;28;20199;-80
2022/12/24 03:55:25;;;;;;;0.00;0.00;;;;;;;;;;5081675;28;20221;-80
2022/12/24 03:57:58;;;;;;;0.00;0.00;;;;;;;;;;5091215;28;20284;-79
2022/12/24 04:00:30;;;;;;;0.00;0.00;;;;;;;;;;5074789;28;20199;-80
2022/12/24 04:03:04;;;;;;;0.00;0.00;;;;;;;;;;5088351;28;20349;-79
2022/12/24 04:05:36;;;;;;;0.00;0.00;;;;;;;;;;5079973;28;20230;-80
2022/12/24 04:08:06;;;;;;;0.00;0.00;;;;;;;;;;5093196;28;20194;-80
2022/12/24 04:10:37;;;;;;;0.00;0.00;;;;;;;;;;5075061;28;20276;-80
2022/12/24 04:13:07;;;;;;;0.00;0.00;;;;;;;;;;5075567;28;20239;-79
2022/12/24 04:15:38;;;;;;;0.00;0.00;;;;;;;;;;5093110;28;20308;-79
2022/12/24 04:18:10;;;;;;;0.00;0.00;;;;;;;;;;5086579;28;20244;-79
2022/12/24 04:20:41;;;;;;;0.00;0.00;;;;;;;;;;5090823;28;20202;-79
2022/12/24 04:23:12;;;;;;;0.00;0.00;;;;;;;;;;5092976;28;20217;-78
2022/12/24 04:25:42;;;;;;;0.00;0.00;;;;;;;;;;5093291;28;20221;-79
2022/12/24 04:28:14;;;;;;;0.00;0.00;;;;;;;;;;5091063;28;20208;-79
2022/12/24 04:30:48;;;;;;;0.00;0.00;;;;;;;;;;5076778;28;20312;-79
2022/12/24 04:33:22;;;;;;;0.00;0.00;;;;;;;;;;5093332;28;20689;-78
2022/12/24 04:35:54;;;;;;;0.00;0.00;;;;;;;;;;5086579;28;20714;-78
2022/12/24 04:38:24;;;;;;;0.00;0.00;;;;;;;;;;5072781;28;20202;-79
2022/12/24 04:40:59;;;;;;;0.00;0.00;;;;;;;;;;5089160;28;20209;-79
2022/12/24 04:43:30;;;;;;;0.00;0.00;;;;;;;;;;5082673;28;20252;-79
2022/12/24 04:46:08;;;;;;;0.00;0.00;;;;;;;;;;5092896;28;20228;-80
2022/12/24 04:48:41;;;;;;;0.00;0.00;;;;;;;;;;5093067;28;20661;-80
2022/12/24 04:51:12;;;;;;;0.00;0.00;;;;;;;;;;5092489;28;20198;-80
2022/12/24 04:53:42;;;;;;;0.00;0.00;;;;;;;;;;5091600;28;20228;-80
2022/12/24 04:56:13;;;;;;;0.00;0.00;;;;;;;;;;5090375;28;20229;-80
2022/12/24 04:58:44;;;;;;;0.00;0.00;;;;;;;;;;5089873;28;20201;-81
2022/12/24 05:01:15;;;;;;;0.00;0.00;;;;;;;;;;5074784;28;20209;-81
2022/12/24 05:03:50;;;;;;;0.00;0.00;;;;;;;;;;5072509;28;20289;-80
2022/12/24 05:06:22;;;;;;;0.00;0.00;;;;;;;;;;5071264;28;20249;-80
2022/12/24 05:08:55;;;;;;;0.00;0.00;;;;;;;;;;5084564;28;20201;-80
2022/12/24 05:11:28;;;;;;;0.00;0.00;;;;;;;;;;5079485;28;20217;-81
2022/12/24 05:13:58;;;;;;;0.00;0.00;;;;;;;;;;5092821;28;20557;-81
2022/12/24 05:16:28;;;;;;;0.00;0.00;;;;;;;;;;5091355;28;20222;-81
2022/12/24 05:18:59;;;;;;;0.00;0.00;;;;;;;;;;5089102;28;20689;-80
2022/12/24 05:21:29;;;;;;;0.00;0.00;;;;;;;;;;5091223;28;20254;-80
2022/12/24 05:26:50;;;;;;;0.00;0.00;;;;;;;;;;5075438;28;20218;-80
2022/12/24 05:29:19;;;;;;;0.00;0.00;;;;;;;;;;5076950;28;20203;-79
2022/12/24 05:31:47;;;;;;;0.00;0.00;;;;;;;;;;5076116;28;20218;-79
2022/12/24 05:34:18;;;;;;;0.00;0.00;;;;;;;;;;5076205;28;20691;-80
2022/12/24 05:36:46;;;;;;;0.00;0.00;;;;;;;;;;5076031;28;20300;-80
2022/12/24 05:39:15;;;;;;;0.00;0.00;;;;;;;;;;5081571;28;20228;-81
2022/12/24 05:41:44;;;;;;;0.00;0.00;;;;;;;;;;5096028;28;20263;-80
2022/12/24 05:44:13;;;;;;;0.00;0.00;;;;;;;;;;5096126;28;20765;-80
2022/12/24 05:46:41;;;;;;;0.00;0.00;;;;;;;;;;5096303;28;20718;-80
2022/12/24 05:49:10;;;;;;;0.00;0.00;;;;;;;;;;5088327;28;20221;-80
2022/12/24 05:51:40;;;;;;;0.00;0.00;;;;;;;;;;5090277;28;20226;-80
2022/12/24 05:54:09;;;;;;;0.00;0.00;;;;;;;;;;5079833;28;20658;-79
2022/12/24 05:56:38;;;;;;;0.00;0.00;;;;;;;;;;5095878;28;20258;-79
2022/12/24 05:59:06;;;;;;;0.00;0.00;;;;;;;;;;5094359;28;20206;-80
2022/12/24 06:01:34;;;;;;;0.00;0.00;;;;;;;;;;5095695;28;20206;-80
2022/12/24 06:04:03;;;;;;;0.00;0.00;;;;;;;;;;5089222;28;20214;-81
2022/12/24 06:06:32;;;;;;;0.00;0.00;;;;;;;;;;5075129;28;20230;-80
2022/12/24 06:09:01;;;;;;;0.00;0.00;;;;;;;;;;5078259;28;20620;-80
2022/12/24 06:11:30;;;;;;;0.00;0.00;;;;;;;;;;5075342;28;20305;-80
2022/12/24 06:13:58;;;;;;;0.00;0.00;;;;;;;;;;5075336;28;20194;-80
2022/12/24 06:16:27;;;;;;;0.00;0.00;;;;;;;;;;5074987;28;20226;-80
2022/12/24 06:18:56;;;;;;;0.00;0.00;;;;;;;;;;5081891;28;20202;-80
2022/12/24 06:21:24;;;;;;;0.00;0.00;;;;;;;;;;5083951;28;20206;-79
2022/12/24 06:23:52;;;;;;;0.00;0.00;;;;;;;;;;5077704;28;20282;-79
2022/12/24 06:26:23;;;;;;;0.00;0.00;;;;;;;;;;5095427;28;20229;-79
2022/12/24 06:28:52;;;;;;;0.00;0.00;;;;;;;;;;5086080;28;20202;-80
2022/12/24 06:31:21;;;;;;;0.00;0.00;;;;;;;;;;5095476;28;20213;-80
2022/12/24 06:33:50;;;;;;;0.00;0.00;;;;;;;;;;5091509;28;20202;-79
2022/12/24 06:36:20;;;;;;;0.00;0.00;;;;;;;;;;5081839;28;20226;-79
2022/12/24 06:38:48;;;;;;;0.00;0.00;;;;;;;;;;5080737;28;20229;-79
2022/12/24 06:41:17;;;;;;;0.00;0.00;;;;;;;;;;5074991;28;20207;-79
2022/12/24 06:43:47;;;;;;;0.00;0.00;;;;;;;;;;5074658;28;20214;-79
2022/12/24 06:46:16;;;;;;;0.00;0.00;;;;;;;;;;5081899;28;20233;-79
2022/12/24 06:48:45;;;;;;;0.00;0.00;;;;;;;;;;5082706;28;20199;-79
2022/12/24 06:51:14;;;;;;;0.00;0.00;;;;;;;;;;5074678;28;20721;-79
2022/12/24 06:53:43;;;;;;;0.00;0.00;;;;;;;;;;5086976;28;20651;-80
2022/12/24 06:56:12;;;;;;;0.00;0.00;;;;;;;;;;5093337;28;20234;-79
2022/12/24 06:58:40;;;;;;;0.00;0.00;;;;;;;;;;5086549;28;20258;-79
2022/12/24 07:01:12;;;;;;;0.00;0.00;;;;;;;;;;5093835;28;20209;-80
2022/12/24 07:03:40;;;;;;;0.00;0.00;;;;;;;;;;5084823;28;20634;-80
2022/12/24 07:06:11;;;;;;;0.00;0.00;;;;;;;;;;5074762;28;20313;-80
2022/12/24 07:08:40;;;;;;;0.00;0.00;;;;;;;;;;5083833;28;20244;-79
2022/12/24 07:11:08;;;;;;;0.00;0.00;;;;;;;;;;5094516;28;20209;-79
2022/12/24 07:13:37;;;;;;;0.00;0.00;;;;;;;;;;5078353;28;20207;-81
2022/12/24 07:16:06;;;;;;;0.00;0.00;;;;;;;;;;5084661;28;20217;-80
2022/12/24 07:18:36;;;;;;;0.00;0.00;;;;;;;;;;5092778;28;20208;-79
2022/12/24 07:21:06;;;;;;;0.00;0.00;;;;;;;;;;5087737;28;20229;-80
2022/12/24 07:23:34;;;;;;;0.00;0.00;;;;;;;;;;5094163;28;20198;-80
2022/12/24 07:26:03;;;;;;;0.00;0.00;;;;;;;;;;5081035;28;20222;-79
2022/12/24 07:28:31;;;;;;;0.00;0.00;;;;;;;;;;5075177;28;20249;-79
2022/12/24 07:31:00;;;;;;;0.00;0.00;;;;;;;;;;5081849;28;20194;-80
2022/12/24 07:33:28;;;;;;;0.00;0.00;;;;;;;;;;5093114;28;20206;-79
2022/12/24 07:36:02;;;;;;;0.00;0.00;;;;;;;;;;5089256;28;20690;-80
2022/12/24 07:38:31;;;;;;;0.00;0.00;;;;;;;;;;5077698;28;20243;-80
2022/12/24 07:40:59;;;;;;;0.00;0.00;;;;;;;;;;5084219;28;20677;-79
2022/12/24 07:43:28;;;;;;;0.00;0.00;;;;;;;;;;5088551;28;20221;-79
2022/12/24 07:45:57;;;;;;;0.00;0.00;;;;;;;;;;5074094;28;20250;-79
2022/12/24 07:48:26;;;;;;;0.00;0.00;;;;;;;;;;5076453;28;20217;-79
2022/12/24 07:50:54;;;;;;;0.00;0.00;;;;;;;;;;5074754;28;20210;-79
2022/12/24 07:53:25;;;;;;;0.00;0.00;;;;;;;;;;5073655;28;20647;-81
2022/12/24 07:55:53;;;;;;;0.00;0.00;;;;;;;;;;5073995;28;20752;-82
2022/12/24 07:58:22;;;;;;;0.00;0.00;;;;;;;;;;5073872;28;20717;-82
2022/12/24 08:00:50;;;;;;;0.00;0.00;;;;;;;;;;5074215;28;20210;-82
2022/12/24 08:03:19;;;;;;;0.00;0.00;;;;;;;;;;5073688;28;20256;-83
2022/12/24 08:05:49;;;;;;;0.00;0.00;;;;;;;;;;5073332;28;20258;-81
2022/12/24 08:08:17;;;;;;;0.00;0.00;;;;;;;;;;5073854;28;20240;-81
2022/12/24 08:10:48;;;;;;;0.00;0.00;;;;;;;;;;5073847;28;20202;-83
2022/12/24 08:13:17;;;;;;;0.00;0.00;;;;;;;;;;5073496;28;20214;-82
2022/12/24 08:15:46;;;;;;;0.00;0.00;;;;;;;;;;5073344;28;20219;-81
2022/12/24 08:18:15;;;;;;;0.00;0.00;;;;;;;;;;5073669;28;20564;-82
2022/12/24 08:20:43;;;;;;;0.00;0.00;;;;;;;;;;5086620;28;20198;-81
2022/12/24 08:23:12;;;;;;;0.00;0.00;;;;;;;;;;5076629;28;20198;-81
2022/12/24 08:25:42;;;;;;;0.00;0.00;;;;;;;;;;5073348;28;20257;-82
2022/12/24 08:28:13;;;;;;;0.00;0.00;;;;;;;;;;5073896;28;20202;-82
2022/12/24 08:30:41;;;;;;;0.00;0.00;;;;;;;;;;5073512;28;20195;-82
2022/12/24 08:33:10;;;;;;;0.00;0.00;;;;;;;;;;5076704;28;20671;-81
2022/12/24 08:35:38;;;;;;;0.00;0.00;;;;;;;;;;5083426;28;20723;-82
2022/12/24 08:38:07;;;;;;;0.00;0.00;;;;;;;;;;5075498;28;20241;-82
2022/12/24 08:40:35;;;;;;;0.00;0.00;;;;;;;;;;5073128;28;20234;-81
2022/12/24 08:43:03;;;;;;;0.00;0.00;;;;;;;;;;5076778;28;20213;-81
2022/12/24 08:45:33;;;;;;;0.00;0.00;;;;;;;;;;5092687;28;20302;-82
2022/12/24 08:48:08;;;;;;;0.00;0.00;;;;;;;;;;5080654;28;20198;-82
2022/12/24 08:50:38;;;;;;;0.00;0.00;;;;;;;;;;5082332;28;20614;-82
2022/12/24 08:53:07;;;;;;;0.00;0.00;;;;;;;;;;5087822;28;20189;-82
2022/12/24 08:55:35;;;;;;;0.00;0.00;;;;;;;;;;5093318;28;20562;-82
2022/12/24 08:58:04;;;;;;;0.00;0.00;;;;;;;;;;5085140;28;20201;-81
2022/12/24 09:00:34;;;;;;;0.00;0.00;;;;;;;;;;5091765;28;20237;-82
2022/12/24 09:03:02;;;;;;;0.00;0.00;;;;;;;;;;5087270;28;20205;-82
2022/12/24 09:05:31;;;;;;;0.00;0.00;;;;;;;;;;5097192;28;20623;-82
2022/12/24 09:08:00;;;;;;;0.00;0.00;;;;;;;;;;5085707;28;20281;-82
2022/12/24 09:10:28;;;;;;;0.00;0.00;;;;;;;;;;5076861;28;20198;-81
2022/12/24 09:12:57;;;;;;;0.00;0.00;;;;;;;;;;5083342;28;20634;-81
2022/12/24 09:15:28;;;;;;;0.00;0.00;;;;;;;;;;5096368;28;22034;-82
2022/12/24 09:18:01;;;;;;;0.00;0.00;;;;;;;;;;5078936;28;20283;-81
2022/12/24 09:20:34;;;;;;;0.00;0.00;;;;;;;;;;5086934;28;20216;-81
2022/12/24 09:23:04;;;;;;;0.00;0.00;;;;;;;;;;5076504;28;20199;-81
2022/12/24 09:25:35;;;;;;;0.00;0.00;;;;;;;;;;5076452;28;20305;-82
2022/12/24 09:28:10;;;;;;;0.00;0.00;;;;;;;;;;5096886;28;20191;-82
2022/12/24 09:30:42;;;;;;;0.00;0.00;;;;;;;;;;5085439;28;20584;-82
2022/12/24 09:33:13;;;;;;;0.00;0.00;;;;;;;;;;5088368;28;20209;-81
2022/12/24 09:35:44;;;;;;;0.00;0.00;;;;;;;;;;5077068;28;20305;-81
2022/12/24 09:38:13;;;;;;;0.00;0.00;;;;;;;;;;5094361;28;20231;-82
2022/12/24 09:40:43;;;;;;;0.00;0.00;;;;;;;;;;5076188;28;20664;-82
2022/12/24 09:43:15;;;;;;;0.00;0.00;;;;;;;;;;5075769;28;20199;-81
2022/12/24 09:45:54;;;;;;;0.00;0.00;;;;;;;;;;5075778;28;20222;-82
2022/12/24 09:48:29;;;;;;;0.00;0.00;;;;;;;;;;5084736;28;20213;-81
2022/12/24 09:51:05;;;;;;;0.00;0.00;;;;;;;;;;5096501;28;20182;-81
2022/12/24 09:53:38;;;;;;;0.00;0.00;;;;;;;;;;5095724;28;20241;-81
2022/12/24 09:56:13;;;;;;;0.00;0.00;;;;;;;;;;5089393;28;20218;-81
2022/12/24 09:58:44;;;;;;;0.00;0.00;;;;;;;;;;5093266;28;20247;-80
2022/12/24 10:01:18;;;;;;;0.00;0.00;;;;;;;;;;5090930;28;20655;-81
2022/12/24 10:03:58;;;;;;;0.00;0.00;;;;;;;;;;5095944;28;20193;-81
2022/12/24 10:06:34;;;;;;;0.00;0.00;;;;;;;;;;5091930;28;20312;-81
2022/12/24 10:09:10;;;;;;;0.00;0.00;;;;;;;;;;5090285;28;20293;-81
2022/12/24 10:11:43;;;;;;;0.00;0.00;;;;;;;;;;5095509;28;20192;-81
2022/12/24 10:14:19;;;;;;;0.00;0.00;;;;;;;;;;5074866;28;20615;-81
2022/12/24 10:16:54;;;;;;;0.00;0.00;;;;;;;;;;5089759;28;20591;-81
2022/12/24 10:19:29;;;;;;;0.00;0.00;;;;;;;;;;5095785;28;20182;-81
2022/12/24 10:22:04;;;;;;;0.00;0.00;;;;;;;;;;5075433;28;20198;-81
2022/12/24 10:24:35;;;;;;;0.00;0.00;;;;;;;;;;5075198;28;20202;-81
2022/12/24 10:27:06;;;;;;;0.00;0.00;;;;;;;;;;5075298;28;20271;-81
2022/12/24 10:29:36;;;;;;;0.00;0.00;;;;;;;;;;5074841;28;20571;-81
2022/12/24 10:32:15;;;;;;;0.00;0.00;;;;;;;;;;5075394;28;20613;-81
2022/12/24 10:34:46;;;;;;;0.00;0.00;;;;;;;;;;5075161;28;20197;-81
2022/12/24 10:37:16;;;;;;;0.00;0.00;;;;;;;;;;5075750;28;20240;-81
2022/12/24 10:39:44;;;;;;;0.00;0.00;;;;;;;;;;5082399;28;20584;-82
2022/12/24 10:42:16;;;;;;;0.00;0.00;;;;;;;;;;5087493;28;20242;-81
2022/12/24 10:44:46;;;;;;;0.00;0.00;;;;;;;;;;5093368;28;20596;-81
2022/12/24 10:47:15;;;;;;;0.00;0.00;;;;;;;;;;5076709;28;20226;-81
2022/12/24 10:49:46;;;;;;;0.00;0.00;;;;;;;;;;5095003;28;20233;-81
2022/12/24 10:52:15;;;;;;;0.00;0.00;;;;;;;;;;5095189;28;20546;-82
2022/12/24 10:54:59;;;;;;;0.00;0.00;;;;;;;;;;5094786;28;20198;-82
2022/12/24 10:57:27;;;;;;;0.00;0.00;;;;;;;;;;5091807;28;20213;-82
2022/12/24 10:59:56;;;;;;;0.00;0.00;;;;;;;;;;5074659;28;20247;-82
2022/12/24 11:02:27;;;;;;;0.00;0.00;;;;;;;;;;5074986;28;20210;-82
2022/12/24 11:04:59;;;;;;;0.00;0.00;;;;;;;;;;5074961;28;20578;-82
2022/12/24 11:07:28;;;;;;;0.00;0.00;;;;;;;;;;5077058;28;20214;-82
2022/12/24 11:09:57;;;;;;;0.00;0.00;;;;;;;;;;5074949;28;20260;-81
2022/12/24 11:12:27;;;;;;;0.00;0.00;;;;;;;;;;5075182;28;20218;-81
2022/12/24 11:15:03;;;;;;;0.00;0.00;;;;;;;;;;5074695;28;20206;-83
2022/12/24 11:17:31;;;;;;;0.00;0.00;;;;;;;;;;5074536;28;20247;-82
2022/12/24 11:20:02;;;;;;;0.00;0.00;;;;;;;;;;5074685;28;20635;-81
2022/12/24 11:22:32;;;;;;;0.00;0.00;;;;;;;;;;5078379;28;20193;-82
2022/12/24 11:25:03;;;;;;;0.00;0.00;;;;;;;;;;5093609;28;20202;-81
2022/12/24 11:27:33;;;;;;;0.00;0.00;;;;;;;;;;5094718;28;20214;-81
2022/12/24 11:30:23;;;;;;;0.00;0.00;;;;;;;;;;5095195;28;20189;-81
2022/12/24 11:33:12;;;;;;;0.00;0.00;;;;;;;;;;5094736;28;20231;-81
2022/12/24 11:35:44;;;;;;;0.00;0.00;;;;;;;;;;5094560;28;20702;-81
2022/12/24 11:38:13;;;;;;;0.00;0.00;;;;;;;;;;5094571;28;20550;-81
2022/12/24 11:40:42;;;;;;;0.00;0.00;;;;;;;;;;5087364;28;20245;-82
2022/12/24 11:43:15;;;;;;;0.00;0.00;;;;;;;;;;5085992;28;20201;-81
2022/12/24 11:45:49;;;;;;;0.00;0.00;;;;;;;;;;5094476;28;20221;-81
2022/12/24 11:48:35;;;;;;;0.00;0.00;;;;;;;;;;5074447;28;20211;-82
2022/12/24 11:51:06;;;;;;;0.00;0.00;;;;;;;;;;5074001;28;20603;-82
2022/12/24 11:53:38;;;;;;;0.00;0.00;;;;;;;;;;5073366;28;20230;-81
2022/12/24 11:56:09;;;;;;;0.00;0.00;;;;;;;;;;5088019;28;20229;-82
2022/12/24 11:58:39;;;;;;;0.00;0.00;;;;;;;;;;5090093;28;20599;-81
2022/12/24 12:01:13;;;;;;;0.00;0.00;;;;;;;;;;5079624;28;20268;-81
2022/12/24 12:03:46;;;;;;;0.00;0.00;;;;;;;;;;5075212;28;20197;-81
2022/12/24 12:06:22;;;;;;;0.00;0.00;;;;;;;;;;5081354;28;20233;-81
2022/12/24 12:08:51;;;;;;;0.00;0.00;;;;;;;;;;5083343;28;20732;-81
2022/12/24 12:11:21;;;;;;;0.00;0.00;;;;;;;;;;5085538;28;20579;-80
2022/12/24 12:13:50;;;;;;;0.00;0.00;;;;;;;;;;5078730;28;20206;-80
2022/12/24 12:16:22;;;;;;;0.00;0.00;;;;;;;;;;5084130;28;20222;-81
2022/12/24 12:18:53;;;;;;;0.00;0.00;;;;;;;;;;5073185;28;20269;-82
2022/12/24 12:21:25;;;;;;;0.00;0.00;;;;;;;;;;5073269;28;20251;-81
2022/12/24 12:23:55;;;;;;;0.00;0.00;;;;;;;;;;5083636;28;20285;-81
2022/12/24 12:26:24;;;;;;;0.00;0.00;;;;;;;;;;5078485;28;20283;-81
2022/12/24 12:28:55;;;;;;;0.00;0.00;;;;;;;;;;5093267;28;20237;-82
2022/12/24 12:31:26;;;;;;;0.00;0.00;;;;;;;;;;5077125;28;20205;-81
2022/12/24 12:33:58;;;;;;;0.00;0.00;;;;;;;;;;5071988;28;20206;-81
2022/12/24 12:36:30;;;;;;;0.00;0.00;;;;;;;;;;5073023;28;20320;-80
2022/12/24 12:38:59;;;;;;;0.00;0.00;;;;;;;;;;5072723;28;20655;-81
2022/12/24 12:41:33;;;;;;;0.00;0.00;;;;;;;;;;5072679;28;20263;-81
2022/12/24 12:44:22;;;;;;;0.00;0.00;;;;;;;;;;5072746;28;20242;-80
2022/12/24 12:46:58;;;;;;;0.00;0.00;;;;;;;;;;5067893;28;20265;-80
2022/12/24 12:49:32;;;;;;;0.00;0.00;;;;;;;;;;5072851;28;20669;-80
2022/12/24 12:52:04;;;;;;;0.00;0.00;;;;;;;;;;5072594;28;20183;-80
2022/12/24 12:54:37;;;;;;;0.00;0.00;;;;;;;;;;5079130;28;20292;-80
2022/12/24 12:57:08;;;;;;;0.00;0.00;;;;;;;;;;5073486;28;20226;-80
2022/12/24 12:59:38;;;;;;;0.00;0.00;;;;;;;;;;5072509;28;20233;-80
2022/12/24 13:02:18;;;;;;;0.00;0.00;;;;;;;;;;5072706;28;20191;-81
2022/12/24 13:04:58;;;;;;;0.00;0.00;;;;;;;;;;5072514;28;20275;-80
2022/12/24 13:07:52;;;;;;;0.00;0.00;;;;;;;;;;5072716;28;20671;-80
2022/12/24 13:10:35;;;;;;;0.00;0.00;;;;;;;;;;5074232;28;20202;-81
2022/12/24 13:13:14;;;;;;;0.00;0.00;;;;;;;;;;5072544;28;20248;-80
2022/12/24 13:15:56;;;;;;;0.00;0.00;;;;;;;;;;5072561;28;20317;-82
2022/12/24 13:18:36;;;;;;;0.00;0.00;;;;;;;;;;5072624;28;20209;-81
2022/12/24 13:21:05;;;;;;;0.00;0.00;;;;;;;;;;5086807;28;20214;-81
2022/12/24 13:23:35;;;;;;;0.00;0.00;;;;;;;;;;5081534;28;20708;-80
2022/12/24 13:26:10;;;;;;;0.00;0.00;;;;;;;;;;5076455;28;20339;-80
2022/12/24 13:28:39;;;;;;;0.00;0.00;;;;;;;;;;5082580;28;20283;-80
2022/12/24 13:31:24;;;;;;;0.00;0.00;;;;;;;;;;5072424;28;20230;-81
2022/12/24 13:33:54;;;;;;;0.00;0.00;;;;;;;;;;5084371;28;20205;-80
2022/12/24 13:36:23;;;;;;;0.00;0.00;;;;;;;;;;5078970;28;20225;-80
2022/12/24 13:38:53;;;;;;;0.00;0.00;;;;;;;;;;5076362;28;20232;-80
2022/12/24 13:41:50;;;;;;;0.00;0.00;;;;;;;;;;5071878;28;20262;-80
2022/12/24 13:44:20;;;;;;;0.00;0.00;;;;;;;;;;5083675;28;20202;-81
2022/12/24 13:46:55;;;;;;;0.00;0.00;;;;;;;;;;5079882;28;20257;-80
2022/12/24 13:49:27;;;;;;;0.00;0.00;;;;;;;;;;5089540;28;20196;-80
2022/12/24 13:52:29;;;;;;;0.00;0.00;;;;;;;;;;5083596;28;20198;-80
2022/12/24 13:55:04;;;;;;;0.00;0.00;;;;;;;;;;5032765;28;20250;-81
2022/12/24 13:57:40;;;;;;;0.00;0.00;;;;;;;;;;5025305;28;20207;-81
2022/12/24 14:00:25;;;;;;;0.00;0.00;;;;;;;;;;5058851;28;20658;-79
2022/12/24 14:02:57;;;;;;;0.00;0.00;;;;;;;;;;5075871;28;20647;-80
2022/12/24 14:05:28;;;;;;;0.00;0.00;;;;;;;;;;5076791;28;20687;-80
2022/12/24 14:07:57;;;;;;;0.00;0.00;;;;;;;;;;5095065;28;20202;-79
2022/12/24 14:10:30;;;;;;;0.00;0.00;;;;;;;;;;5073773;28;20232;-79
2022/12/24 14:12:58;;;;;;;0.00;0.00;;;;;;;;;;5075924;28;20199;-79
2022/12/24 14:15:45;;;;;;;0.00;0.00;;;;;;;;;;5074796;28;20222;-80
2022/12/24 14:18:17;;;;;;;0.00;0.00;;;;;;;;;;5077968;28;20195;-79
2022/12/24 14:20:49;;;;;;;0.00;0.00;;;;;;;;;;5080313;28;20199;-79
2022/12/24 14:23:24;;;;;;;0.00;0.00;;;;;;;;;;5086195;28;20225;-79
2022/12/24 14:25:54;;;;;;;0.00;0.00;;;;;;;;;;5086060;28;20229;-79
2022/12/24 14:28:25;;;;;;;0.00;0.00;;;;;;;;;;5084598;28;20218;-79
2022/12/24 14:31:00;;;;;;;0.00;0.00;;;;;;;;;;5074896;28;20377;-79
2022/12/24 14:33:29;;;;;;;0.00;0.00;;;;;;;;;;5074940;28;20226;-79
2022/12/24 14:35:58;;;;;;;0.00;0.00;;;;;;;;;;5088550;28;20248;-78
2022/12/24 14:38:27;;;;;;;0.00;0.00;;;;;;;;;;5087738;28;20604;-79
2022/12/24 14:41:01;;;;;;;0.00;0.00;;;;;;;;;;5083375;28;20206;-78
2022/12/24 14:43:35;;;;;;;0.00;0.00;;;;;;;;;;5089685;28;20201;-78
2022/12/24 14:46:08;;;;;;;0.00;0.00;;;;;;;;;;5074806;28;20245;-79
2022/12/24 14:48:40;;;;;;;0.00;0.00;;;;;;;;;;5086078;28;20217;-78
2022/12/24 14:51:13;;;;;;;0.00;0.00;;;;;;;;;;5076762;28;20194;-79
2022/12/24 14:53:49;;;;;;;0.00;0.00;;;;;;;;;;5079822;28;20241;-79
2022/12/24 14:56:32;;;;;;;0.00;0.00;;;;;;;;;;5075208;28;20263;-79
2022/12/24 14:59:14;;;;;;;0.00;0.00;;;;;;;;;;5085543;28;20194;-79
2022/12/24 15:01:44;;;;;;;0.00;0.00;;;;;;;;;;5084262;28;20248;-78
2022/12/24 15:04:16;;;;;;;0.00;0.00;;;;;;;;;;5093117;28;20588;-78
2022/12/24 15:06:48;;;;;;;0.00;0.00;;;;;;;;;;5073398;28;20253;-78
2022/12/24 15:09:19;;;;;;;0.00;0.00;;;;;;;;;;5074441;28;20214;-78
2022/12/24 15:11:49;;;;;;;0.00;0.00;;;;;;;;;;5079300;28;20202;-79
2022/12/24 15:14:19;;;;;;;0.00;0.00;;;;;;;;;;5073818;28;20205;-78
2022/12/24 15:16:53;;;;;;;0.00;0.00;;;;;;;;;;5093510;28;20237;-78
2022/12/24 15:19:23;;;;;;;0.00;0.00;;;;;;;;;;5072307;28;20225;-78